createdAt,value
2023-01-12T00:00:25.210Z,98893.88
2023-01-12T00:01:27.631Z,98898.59
2023-01-12T00:02:29.522Z,98884.19
2023-01-12T00:03:31.361Z,98884.19
2023-01-12T00:04:33.307Z,98886.06
2023-01-12T00:05:35.195Z,98892.44
2023-01-12T00:06:36.991Z,98881.72
2023-01-12T00:07:38.870Z,98880.88
2023-01-12T00:08:41.260Z,98888.09
2023-01-12T00:09:43.194Z,98887.25
2023-01-12T00:10:45.002Z,98888.28
2023-01-12T00:11:46.815Z,98890.97
2023-01-12T00:12:48.569Z,98891.81
2023-01-12T00:13:50.707Z,98890.97
2023-01-12T00:14:53.292Z,98880.44
2023-01-12T00:16:21.096Z,98891.97
2023-01-12T00:17:22.906Z,98885.84
2023-01-12T00:18:24.735Z,98882.06
2023-01-12T00:19:26.586Z,98894.66
2023-01-12T00:20:28.409Z,98900.00
2023-01-12T00:21:34.378Z,98895.69
2023-01-12T00:22:36.126Z,98891.13
2023-01-12T00:23:37.936Z,98885.38
2023-01-12T00:24:45.455Z,98884.53
2023-01-12T00:25:51.624Z,98895.06
2023-01-12T00:26:54.794Z,98879.00
2023-01-12T00:27:56.618Z,98883.47
2023-01-12T00:28:58.579Z,98887.19
2023-01-12T00:30:00.411Z,98891.75
2023-01-12T00:31:05.358Z,98891.91
2023-01-12T00:32:08.089Z,98872.31
2023-01-12T00:33:09.863Z,98882.06
2023-01-12T00:34:11.833Z,98885.75
2023-01-12T00:35:13.635Z,98884.91
2023-01-12T00:36:17.763Z,98887.59
2023-01-12T00:37:19.987Z,98891.13
2023-01-12T00:38:21.908Z,98886.78
2023-01-12T00:39:23.850Z,98881.59
2023-01-12T00:40:28.180Z,98873.59
2023-01-12T00:41:48.518Z,98885.13
2023-01-12T00:43:08.752Z,98888.22
2023-01-12T00:44:29.077Z,98889.69
2023-01-12T00:45:30.869Z,98887.03
2023-01-12T00:46:33.211Z,98891.91
2023-01-12T00:47:35.265Z,98883.25
2023-01-12T00:48:37.201Z,98886.16
2023-01-12T00:49:39.843Z,98877.50
2023-01-12T00:50:41.636Z,98873.94
2023-01-12T00:51:43.528Z,98885.28
2023-01-12T00:52:45.605Z,98885.53
2023-01-12T00:53:47.490Z,98882.22
2023-01-12T00:54:49.434Z,98890.25
2023-01-12T00:55:51.304Z,98891.06
2023-01-12T00:56:53.175Z,98858.59
2023-01-12T00:57:55.099Z,98858.38
2023-01-12T00:58:56.956Z,98888.13
2023-01-12T01:00:00.281Z,98875.31
2023-01-12T01:01:07.669Z,98888.59
2023-01-12T01:02:09.647Z,98877.66
2023-01-12T01:03:11.704Z,98887.31
2023-01-12T01:04:13.549Z,98901.75
2023-01-12T01:05:17.717Z,98874.25
2023-01-12T01:06:19.565Z,98897.63
2023-01-12T01:07:24.367Z,98885.19
2023-01-12T01:08:26.151Z,98897.63
2023-01-12T01:09:28.205Z,98898.66
2023-01-12T01:10:30.042Z,98901.34
2023-01-12T01:11:32.068Z,98906.69
2023-01-12T01:12:33.875Z,98912.84
2023-01-12T01:13:36.768Z,98906.69
2023-01-12T01:14:38.766Z,98912.84
2023-01-12T01:15:40.881Z,98895.97
2023-01-12T01:16:42.749Z,98899.69
2023-01-12T01:17:44.501Z,98872.38
2023-01-12T01:18:46.505Z,98892.66
2023-01-12T01:19:48.478Z,98895.13
2023-01-12T01:20:50.234Z,98896.38
2023-01-12T01:21:52.182Z,98893.69
2023-01-12T01:22:54.006Z,98896.38
2023-01-12T01:23:56.375Z,98896.16
2023-01-12T01:24:58.159Z,98895.34
2023-01-12T01:26:05.031Z,98894.50
2023-01-12T01:27:06.842Z,98897.81
2023-01-12T01:28:08.697Z,98892.66
2023-01-12T01:29:10.874Z,98904.19
2023-01-12T01:30:12.939Z,98887.31
2023-01-12T01:31:25.291Z,98894.31
2023-01-12T01:32:27.164Z,98886.09
2023-01-12T01:33:28.988Z,98878.28
2023-01-12T01:34:30.846Z,98842.06
2023-01-12T01:35:32.787Z,98877.66
2023-01-12T01:36:34.718Z,98886.03
2023-01-12T01:37:36.518Z,98875.50
2023-01-12T01:38:39.373Z,98878.63
2023-01-12T01:39:41.189Z,98878.63
2023-01-12T01:40:43.735Z,98867.88
2023-01-12T01:41:45.696Z,98869.13
2023-01-12T01:42:47.635Z,98883.97
2023-01-12T01:43:59.016Z,98876.16
2023-01-12T01:45:02.901Z,98869.63
2023-01-12T01:46:12.404Z,98863.44
2023-01-12T01:47:40.651Z,98871.50
2023-01-12T01:48:43.980Z,98874.19
2023-01-12T01:49:53.665Z,98871.91
2023-01-12T01:51:01.379Z,98868.38
2023-01-12T01:52:07.474Z,98855.75
2023-01-12T01:53:19.405Z,98865.94
2023-01-12T01:54:21.847Z,98862.59
2023-01-12T01:55:36.582Z,98858.25
2023-01-12T01:56:38.515Z,98852.91
2023-01-12T01:57:45.813Z,98857.44
2023-01-12T01:58:56.119Z,98856.25
2023-01-12T01:59:59.931Z,98848.22
2023-01-12T02:01:01.903Z,98861.59
2023-01-12T02:02:04.496Z,98850.22
2023-01-12T02:03:08.424Z,98856.97
2023-01-12T02:04:10.910Z,98860.28
2023-01-12T02:05:17.405Z,98854.09
2023-01-12T02:06:19.287Z,98858.38
2023-01-12T02:07:21.129Z,98855.06
2023-01-12T02:08:51.502Z,98858.44
2023-01-12T02:09:53.331Z,98869.22
2023-01-12T02:10:58.092Z,98849.78
2023-01-12T02:12:19.086Z,98852.63
2023-01-12T02:13:39.604Z,98867.75
2023-01-12T02:15:04.228Z,98855.22
2023-01-12T02:16:25.656Z,98870.03
2023-01-12T02:17:43.316Z,98870.03
2023-01-12T02:18:57.245Z,98868.38
2023-01-12T02:20:19.216Z,98870.66
2023-01-12T02:21:48.078Z,98868.63
2023-01-12T02:23:22.708Z,98877.03
2023-01-12T02:24:42.762Z,98874.59
2023-01-12T02:26:12.582Z,98867.81
2023-01-12T02:27:30.316Z,98869.84
2023-01-12T02:28:59.576Z,98874.56
2023-01-12T02:30:22.209Z,98867.19
2023-01-12T02:31:48.377Z,98871.91
2023-01-12T02:33:02.441Z,98857.97
2023-01-12T02:34:26.817Z,98873.28
2023-01-12T02:35:32.811Z,98876.63
2023-01-12T02:36:37.427Z,98866.63
2023-01-12T02:37:43.605Z,98874.66
2023-01-12T02:38:57.423Z,98881.03
2023-01-12T02:40:11.501Z,98867.66
2023-01-12T02:41:51.459Z,98871.63
2023-01-12T02:43:09.588Z,98867.56
2023-01-12T02:44:26.518Z,98860.75
2023-01-12T02:45:43.061Z,98857.91
2023-01-12T02:46:50.768Z,98857.44
2023-01-12T02:48:04.444Z,98853.94
2023-01-12T02:49:13.483Z,98860.28
2023-01-12T02:50:34.349Z,98850.34
2023-01-12T02:51:41.858Z,98859.28
2023-01-12T02:52:48.661Z,98866.63
2023-01-12T02:53:54.273Z,98856.97
2023-01-12T02:54:59.071Z,98862.53
2023-01-12T02:56:04.679Z,98857.34
2023-01-12T02:57:09.117Z,98860.88
2023-01-12T02:58:14.695Z,98848.31
2023-01-12T02:59:18.844Z,98853.88
2023-01-12T03:00:20.901Z,98856.31
2023-01-12T03:01:25.515Z,98863.72
2023-01-12T03:02:28.156Z,98855.53
2023-01-12T03:03:30.405Z,98860.03
2023-01-12T03:04:33.368Z,98853.03
2023-01-12T03:05:35.143Z,98863.72
2023-01-12T03:06:48.289Z,98860.88
2023-01-12T03:07:59.006Z,98871.56
2023-01-12T03:09:00.864Z,98857.97
2023-01-12T03:10:38.317Z,98861.94
2023-01-12T03:11:43.079Z,98859.72
2023-01-12T03:12:45.760Z,98864.63
2023-01-12T03:14:02.006Z,98858.25
2023-01-12T03:15:08.783Z,98858.63
2023-01-12T03:16:13.526Z,98855.94
2023-01-12T03:17:26.792Z,98857.97
2023-01-12T03:18:40.241Z,98863.78
2023-01-12T03:19:45.703Z,98849.72
2023-01-12T03:20:55.553Z,98857.59
2023-01-12T03:22:08.145Z,98855.94
2023-01-12T03:23:15.784Z,98849.78
2023-01-12T03:24:23.408Z,98856.97
2023-01-12T03:25:27.096Z,98862.31
2023-01-12T03:26:32.317Z,98852.00
2023-01-12T03:27:45.496Z,98848.94
2023-01-12T03:28:53.628Z,98863.34
2023-01-12T03:30:06.989Z,98856.78
2023-01-12T03:31:11.933Z,98846.88
2023-01-12T03:32:14.119Z,98861.28
2023-01-12T03:33:15.915Z,98862.31
2023-01-12T03:34:17.740Z,98861.88
2023-01-12T03:35:26.824Z,98860.03
2023-01-12T03:36:33.913Z,98856.31
2023-01-12T03:37:50.613Z,98855.94
2023-01-12T03:39:26.315Z,98860.56
2023-01-12T03:40:34.997Z,98843.84
2023-01-12T03:41:39.885Z,98844.69
2023-01-12T03:42:48.185Z,98853.94
2023-01-12T03:43:53.872Z,98841.75
2023-01-12T03:45:04.942Z,98837.59
2023-01-12T03:46:12.892Z,98843.59
2023-01-12T03:47:21.586Z,98824.22
2023-01-12T03:48:37.074Z,98837.88
2023-01-12T03:49:48.112Z,98830.69
2023-01-12T03:50:55.962Z,98837.03
2023-01-12T03:52:00.183Z,98833.72
2023-01-12T03:53:03.871Z,98831.06
2023-01-12T03:54:09.418Z,98832.06
2023-01-12T03:55:15.847Z,98834.75
2023-01-12T03:56:20.342Z,98827.53
2023-01-12T03:57:22.397Z,98825.50
2023-01-12T03:58:25.010Z,98823.22
2023-01-12T03:59:26.947Z,98831.22
2023-01-12T04:00:29.717Z,98821.56
2023-01-12T04:01:32.801Z,98820.53
2023-01-12T04:02:34.745Z,98816.84
2023-01-12T04:03:36.523Z,98816.84
2023-01-12T04:04:38.448Z,98830.22
2023-01-12T04:05:41.983Z,98827.53
2023-01-12T04:06:43.796Z,98813.28
2023-01-12T04:07:45.584Z,98812.31
2023-01-12T04:08:47.376Z,98815.81
2023-01-12T04:09:49.400Z,98817.69
2023-01-12T04:10:51.183Z,98823.84
2023-01-12T04:12:11.575Z,98814.78
2023-01-12T04:13:13.741Z,98818.78
2023-01-12T04:14:15.586Z,98818.13
2023-01-12T04:15:17.394Z,98818.13
2023-01-12T04:16:19.611Z,98811.13
2023-01-12T04:17:25.149Z,98801.19
2023-01-12T04:18:26.962Z,98809.28
2023-01-12T04:19:28.989Z,98811.13
2023-01-12T04:20:30.904Z,98811.13
2023-01-12T04:22:11.206Z,98804.75
2023-01-12T04:23:13.111Z,98809.13
2023-01-12T04:24:14.879Z,98799.22
2023-01-12T04:25:22.410Z,98800.44
2023-01-12T04:26:24.411Z,98810.75
2023-01-12T04:27:26.178Z,98805.41
2023-01-12T04:28:27.983Z,98798.38
2023-01-12T04:29:29.755Z,98813.81
2023-01-12T04:30:34.006Z,98801.81
2023-01-12T04:31:35.945Z,98809.06
2023-01-12T04:32:38.242Z,98796.72
2023-01-12T04:33:40.012Z,98803.09
2023-01-12T04:34:41.957Z,98794.41
2023-01-12T04:35:43.794Z,98800.44
2023-01-12T04:36:45.648Z,98790.56
2023-01-12T04:37:48.213Z,98803.09
2023-01-12T04:38:50.021Z,98783.25
2023-01-12T04:39:51.838Z,98799.41
2023-01-12T04:40:55.027Z,98795.91
2023-01-12T04:41:57.042Z,98799.41
2023-01-12T04:43:02.008Z,98797.75
2023-01-12T04:44:04.805Z,98791.38
2023-01-12T04:45:07.124Z,98793.03
2023-01-12T04:46:10.818Z,98787.06
2023-01-12T04:47:12.631Z,98793.03
2023-01-12T04:48:16.492Z,98781.25
2023-01-12T04:49:18.316Z,98794.72
2023-01-12T04:50:20.186Z,98795.72
2023-01-12T04:51:22.240Z,98793.03
2023-01-12T04:52:24.081Z,98791.19
2023-01-12T04:53:26.311Z,98794.72
2023-01-12T04:54:28.221Z,98780.69
2023-01-12T04:55:30.091Z,98789.38
2023-01-12T04:56:31.984Z,98805.41
2023-01-12T04:57:33.909Z,98800.06
2023-01-12T04:58:36.511Z,98792.41
2023-01-12T04:59:38.260Z,98794.72
2023-01-12T05:00:40.075Z,98794.72
2023-01-12T05:01:42.048Z,98791.81
2023-01-12T05:02:43.902Z,98787.06
2023-01-12T05:03:45.990Z,98796.38
2023-01-12T05:04:48.663Z,98786.69
2023-01-12T05:05:50.517Z,98797.19
2023-01-12T05:06:52.295Z,98791.38
2023-01-12T05:08:12.758Z,98791.03
2023-01-12T05:09:33.171Z,98776.41
2023-01-12T05:10:35.075Z,98794.34
2023-01-12T05:11:37.279Z,98788.97
2023-01-12T05:12:39.067Z,98790.63
2023-01-12T05:13:40.847Z,98779.91
2023-01-12T05:14:42.673Z,98778.28
2023-01-12T05:15:44.483Z,98782.78
2023-01-12T05:16:46.333Z,98757.53
2023-01-12T05:17:48.400Z,98789.16
2023-01-12T05:18:52.884Z,98780.31
2023-01-12T05:19:54.645Z,98768.59
2023-01-12T05:20:57.307Z,98771.28
2023-01-12T05:21:59.407Z,98765.84
2023-01-12T05:23:01.232Z,98774.97
2023-01-12T05:24:03.109Z,98775.59
2023-01-12T05:25:05.260Z,98773.94
2023-01-12T05:26:07.846Z,98775.59
2023-01-12T05:27:09.649Z,98762.22
2023-01-12T05:28:11.442Z,98771.28
2023-01-12T05:29:13.453Z,98767.13
2023-01-12T05:30:15.731Z,98769.41
2023-01-12T05:31:19.611Z,98743.13
2023-01-12T05:32:21.471Z,98771.06
2023-01-12T05:33:23.306Z,98768.59
2023-01-12T05:34:25.135Z,98767.56
2023-01-12T05:35:26.956Z,98771.28
2023-01-12T05:36:28.933Z,98772.06
2023-01-12T05:37:30.846Z,98763.88
2023-01-12T05:38:32.837Z,98764.91
2023-01-12T05:39:34.679Z,98765.91
2023-01-12T05:40:36.570Z,98763.25
2023-01-12T05:41:58.405Z,98763.25
2023-01-12T05:43:18.839Z,98762.44
2023-01-12T05:44:20.729Z,98763.88
2023-01-12T05:45:22.745Z,98767.81
2023-01-12T05:46:33.315Z,98765.31
2023-01-12T05:47:35.263Z,98762.63
2023-01-12T05:48:37.032Z,98756.66
2023-01-12T05:49:38.868Z,98754.19
2023-01-12T05:50:40.770Z,98751.53
2023-01-12T05:51:42.541Z,98754.38
2023-01-12T05:52:44.317Z,98758.91
2023-01-12T05:53:46.463Z,98761.59
2023-01-12T05:54:48.221Z,98758.91
2023-01-12T05:55:49.996Z,98763.41
2023-01-12T05:56:51.777Z,98752.28
2023-01-12T05:57:53.611Z,98758.91
2023-01-12T05:58:58.486Z,98766.28
2023-01-12T06:00:00.366Z,98767.75
2023-01-12T06:01:09.216Z,98774.75
2023-01-12T06:02:13.875Z,98778.28
2023-01-12T06:03:16.003Z,98771.28
2023-01-12T06:04:17.837Z,98746.00
2023-01-12T06:05:19.823Z,98767.97
2023-01-12T06:06:23.536Z,98765.28
2023-01-12T06:07:25.307Z,98765.91
2023-01-12T06:08:27.298Z,98769.63
2023-01-12T06:09:29.075Z,98765.91
2023-01-12T06:10:31.104Z,98760.94
2023-01-12T06:11:51.316Z,98763.03
2023-01-12T06:13:11.953Z,98773.78
2023-01-12T06:14:14.160Z,98760.41
2023-01-12T06:15:16.099Z,98755.28
2023-01-12T06:16:17.946Z,98760.19
2023-01-12T06:17:20.338Z,98755.28
2023-01-12T06:18:23.023Z,98762.69
2023-01-12T06:19:24.824Z,98767.69
2023-01-12T06:20:26.697Z,98766.44
2023-01-12T06:21:28.545Z,98761.47
2023-01-12T06:22:30.320Z,98764.84
2023-01-12T06:23:35.601Z,98767.91
2023-01-12T06:24:37.752Z,98771.03
2023-01-12T06:25:39.522Z,98774.13
2023-01-12T06:26:45.122Z,98773.53
2023-01-12T06:27:47.071Z,98771.06
2023-01-12T06:28:48.860Z,98777.28
2023-01-12T06:29:50.643Z,98779.16
2023-01-12T06:30:59.990Z,98774.00
2023-01-12T06:32:01.842Z,98781.25
2023-01-12T06:33:03.788Z,98779.00
2023-01-12T06:34:08.000Z,98743.91
2023-01-12T06:35:18.599Z,98761.06
2023-01-12T06:36:21.155Z,98779.69
2023-01-12T06:37:22.926Z,98770.81
2023-01-12T06:38:26.841Z,98787.75
2023-01-12T06:39:29.655Z,98765.44
2023-01-12T06:40:32.151Z,98771.69
2023-01-12T06:41:53.786Z,98775.19
2023-01-12T06:42:55.560Z,98786.16
2023-01-12T06:43:57.705Z,98788.59
2023-01-12T06:45:01.486Z,98778.72
2023-01-12T06:46:03.403Z,98789.84
2023-01-12T06:47:05.600Z,98777.91
2023-01-12T06:48:07.532Z,98770.50
2023-01-12T06:49:09.325Z,98779.97
2023-01-12T06:50:11.808Z,98786.97
2023-01-12T06:51:13.672Z,98788.44
2023-01-12T06:52:15.607Z,98783.69
2023-01-12T06:53:17.475Z,98787.81
2023-01-12T06:54:19.257Z,98782.03
2023-01-12T06:55:21.241Z,98773.81
2023-01-12T06:56:23.371Z,98785.75
2023-01-12T06:57:25.350Z,98787.00
2023-01-12T06:58:27.313Z,98780.41
2023-01-12T06:59:29.117Z,98784.94
2023-01-12T07:00:32.279Z,98782.03
2023-01-12T07:01:34.159Z,98780.81
2023-01-12T07:02:35.977Z,98783.28
2023-01-12T07:03:37.817Z,98787.59
2023-01-12T07:04:40.780Z,98785.75
2023-01-12T07:05:42.651Z,98784.72
2023-01-12T07:06:44.540Z,98781.03
2023-01-12T07:07:46.445Z,98773.81
2023-01-12T07:08:48.244Z,98770.91
2023-01-12T07:09:50.077Z,98772.56
2023-01-12T07:10:51.880Z,98765.34
2023-01-12T07:11:53.693Z,98770.50
2023-01-12T07:12:55.531Z,98766.78
2023-01-12T07:13:57.577Z,98769.47
2023-01-12T07:14:59.844Z,98766.78
2023-01-12T07:16:02.480Z,98757.94
2023-01-12T07:17:04.401Z,98760.19
2023-01-12T07:18:06.208Z,98771.13
2023-01-12T07:19:07.971Z,98758.53
2023-01-12T07:20:10.239Z,98770.09
2023-01-12T07:21:13.726Z,98762.06
2023-01-12T07:22:15.528Z,98754.00
2023-01-12T07:23:17.310Z,98769.06
2023-01-12T07:24:19.188Z,98763.69
2023-01-12T07:25:21.226Z,98768.44
2023-01-12T07:26:23.005Z,98759.97
2023-01-12T07:27:24.955Z,98763.47
2023-01-12T07:28:27.228Z,98761.84
2023-01-12T07:29:29.045Z,98750.69
2023-01-12T07:30:30.937Z,98772.34
2023-01-12T07:31:32.718Z,98763.50
2023-01-12T07:32:34.682Z,98765.16
2023-01-12T07:33:38.483Z,98760.59
2023-01-12T07:34:40.340Z,98745.56
2023-01-12T07:35:43.339Z,98765.94
2023-01-12T07:36:45.228Z,98766.78
2023-01-12T07:37:52.452Z,98767.81
2023-01-12T07:38:54.457Z,98766.78
2023-01-12T07:39:58.965Z,98775.88
2023-01-12T07:41:02.202Z,98763.28
2023-01-12T07:42:22.594Z,98758.75
2023-01-12T07:43:25.350Z,98769.69
2023-01-12T07:44:27.607Z,98768.25
2023-01-12T07:45:30.167Z,98779.38
2023-01-12T07:46:32.098Z,98783.69
2023-01-12T07:47:34.003Z,98772.16
2023-01-12T07:48:35.898Z,98773.19
2023-01-12T07:49:37.681Z,98783.91
2023-01-12T07:50:39.527Z,98784.72
2023-01-12T07:51:41.431Z,98773.38
2023-01-12T07:52:43.314Z,98775.03
2023-01-12T07:53:45.100Z,98778.56
2023-01-12T07:54:46.903Z,98780.41
2023-01-12T07:55:48.851Z,98764.31
2023-01-12T07:56:50.758Z,98775.03
2023-01-12T07:58:01.264Z,98783.91
2023-01-12T07:59:03.528Z,98774.00
2023-01-12T08:00:06.164Z,98774.84
2023-01-12T08:01:08.018Z,98750.69
2023-01-12T08:02:16.651Z,98768.44
2023-01-12T08:03:18.578Z,98769.47
2023-01-12T08:04:21.687Z,98771.72
2023-01-12T08:05:23.590Z,98765.56
2023-01-12T08:06:25.400Z,98776.69
2023-01-12T08:07:27.211Z,98767.41
2023-01-12T08:08:28.993Z,98768.03
2023-01-12T08:09:30.889Z,98773.38
2023-01-12T08:10:32.821Z,98779.59
2023-01-12T08:11:34.653Z,98779.59
2023-01-12T08:12:36.505Z,98778.75
2023-01-12T08:13:40.726Z,98773.38
2023-01-12T08:14:42.550Z,98787.81
2023-01-12T08:15:49.449Z,98783.31
2023-01-12T08:16:54.512Z,98773.19
2023-01-12T08:18:05.744Z,98785.75
2023-01-12T08:19:20.743Z,98782.88
2023-01-12T08:20:27.847Z,98786.19
2023-01-12T08:21:39.758Z,98785.34
2023-01-12T08:22:45.485Z,98749.66
2023-01-12T08:23:53.716Z,98777.09
2023-01-12T08:25:07.373Z,98759.34
2023-01-12T08:26:15.212Z,98781.84
2023-01-12T08:27:21.111Z,98775.44
2023-01-12T08:28:38.252Z,98790.72
2023-01-12T08:29:53.200Z,98782.25
2023-01-12T08:30:55.268Z,98781.44
2023-01-12T08:32:03.679Z,98791.53
2023-01-12T08:33:06.682Z,98779.16
2023-01-12T08:34:09.904Z,98796.06
2023-01-12T08:35:14.241Z,98788.66
2023-01-12T08:36:17.401Z,98797.09
2023-01-12T08:37:22.317Z,98787.41
2023-01-12T08:38:24.150Z,98785.56
2023-01-12T08:39:26.856Z,98804.53
2023-01-12T08:40:48.628Z,98805.38
2023-01-12T08:41:50.413Z,98807.41
2023-01-12T08:42:52.288Z,98792.78
2023-01-12T08:44:03.141Z,98801.22
2023-01-12T08:45:07.975Z,98807.84
2023-01-12T08:46:10.057Z,98809.47
2023-01-12T08:47:17.709Z,98816.91
2023-01-12T08:48:20.141Z,98809.69
2023-01-12T08:49:25.126Z,98804.53
2023-01-12T08:50:26.994Z,98808.88
2023-01-12T08:51:29.074Z,98800.00
2023-01-12T08:52:32.677Z,98805.56
2023-01-12T08:53:34.556Z,98802.50
2023-01-12T08:54:36.390Z,98807.22
2023-01-12T08:55:38.214Z,98792.56
2023-01-12T08:56:40.240Z,98790.31
2023-01-12T08:57:42.006Z,98793.59
2023-01-12T08:58:44.049Z,98796.50
2023-01-12T08:59:46.146Z,98793.19
2023-01-12T09:00:48.041Z,98798.56
2023-01-12T09:01:50.095Z,98798.97
2023-01-12T09:02:51.941Z,98793.59
2023-01-12T09:03:55.787Z,98804.75
2023-01-12T09:04:57.701Z,98807.44
2023-01-12T09:05:59.442Z,98801.22
2023-01-12T09:07:01.289Z,98804.75
2023-01-12T09:08:03.391Z,98801.22
2023-01-12T09:09:08.665Z,98798.56
2023-01-12T09:10:10.601Z,98809.28
2023-01-12T09:11:14.169Z,98807.63
2023-01-12T09:12:16.713Z,98815.47
2023-01-12T09:13:18.557Z,98810.13
2023-01-12T09:14:20.546Z,98817.31
2023-01-12T09:15:23.112Z,98805.78
2023-01-12T09:16:26.781Z,98809.28
2023-01-12T09:17:28.767Z,98803.91
2023-01-12T09:18:30.811Z,98803.72
2023-01-12T09:19:32.927Z,98808.47
2023-01-12T09:20:34.809Z,98813.00
2023-01-12T09:21:39.216Z,98808.66
2023-01-12T09:22:40.983Z,98805.78
2023-01-12T09:23:43.991Z,98808.66
2023-01-12T09:24:46.125Z,98807.63
2023-01-12T09:25:47.979Z,98813.00
2023-01-12T09:26:49.778Z,98818.34
2023-01-12T09:27:51.627Z,98822.91
2023-01-12T09:28:53.396Z,98812.19
2023-01-12T09:29:55.206Z,98824.56
2023-01-12T09:31:04.426Z,98817.75
2023-01-12T09:32:06.223Z,98821.66
2023-01-12T09:33:08.011Z,98820.84
2023-01-12T09:34:10.594Z,98825.38
2023-01-12T09:35:12.348Z,98818.34
2023-01-12T09:36:19.701Z,98815.91
2023-01-12T09:37:21.937Z,98821.66
2023-01-12T09:38:23.715Z,98821.03
2023-01-12T09:39:28.387Z,98822.69
2023-01-12T09:40:30.689Z,98819.19
2023-01-12T09:41:57.384Z,98818.34
2023-01-12T09:43:17.887Z,98809.47
2023-01-12T09:44:50.927Z,98817.97
2023-01-12T09:46:11.178Z,98815.06
2023-01-12T09:47:42.072Z,98814.44
2023-01-12T09:48:44.876Z,98803.09
2023-01-12T09:49:58.666Z,98803.91
2023-01-12T09:51:22.572Z,98804.97
2023-01-12T09:52:38.742Z,98814.44
2023-01-12T09:53:42.011Z,98813.81
2023-01-12T09:54:47.988Z,98813.41
2023-01-12T09:56:08.284Z,98821.47
2023-01-12T09:57:30.294Z,98812.56
2023-01-12T09:58:40.954Z,98812.78
2023-01-12T10:00:05.746Z,98816.50
2023-01-12T10:01:28.341Z,98817.97
2023-01-12T10:02:35.554Z,98814.66
2023-01-12T10:03:41.544Z,98794.84
2023-01-12T10:04:43.567Z,98814.84
2023-01-12T10:06:00.792Z,98807.22
2023-01-12T10:07:02.703Z,98810.75
2023-01-12T10:08:05.111Z,98806.41
2023-01-12T10:09:12.734Z,98797.75
2023-01-12T10:10:15.673Z,98794.00
2023-01-12T10:11:25.023Z,98807.44
2023-01-12T10:12:35.513Z,98806.41
2023-01-12T10:13:58.761Z,98809.28
2023-01-12T10:15:18.823Z,98803.94
2023-01-12T10:16:51.468Z,98805.97
2023-01-12T10:18:11.683Z,98802.25
2023-01-12T10:19:42.743Z,98810.97
2023-01-12T10:20:45.385Z,98803.28
2023-01-12T10:21:47.757Z,98806.38
2023-01-12T10:22:56.723Z,98806.00
2023-01-12T10:23:58.843Z,98806.00
2023-01-12T10:25:00.699Z,98808.88
2023-01-12T10:26:21.528Z,98816.91
2023-01-12T10:27:23.318Z,98808.44
2023-01-12T10:28:29.889Z,98805.16
2023-01-12T10:29:33.009Z,98806.81
2023-01-12T10:30:38.920Z,98813.41
2023-01-12T10:31:40.886Z,98802.69
2023-01-12T10:32:42.823Z,98813.19
2023-01-12T10:34:07.030Z,98815.47
2023-01-12T10:35:20.967Z,98813.41
2023-01-12T10:36:25.369Z,98816.09
2023-01-12T10:37:27.680Z,98820.81
2023-01-12T10:38:38.532Z,98826.59
2023-01-12T10:39:40.590Z,98810.75
2023-01-12T10:40:42.457Z,98823.50
2023-01-12T10:41:44.402Z,98824.53
2023-01-12T10:43:15.752Z,98822.09
2023-01-12T10:44:21.482Z,98824.56
2023-01-12T10:45:24.498Z,98807.03
2023-01-12T10:46:29.783Z,98819.00
2023-01-12T10:47:34.105Z,98821.66
2023-01-12T10:48:38.879Z,98817.34
2023-01-12T10:49:40.924Z,98816.50
2023-01-12T10:50:42.855Z,98818.16
2023-01-12T10:51:55.197Z,98813.00
2023-01-12T10:53:05.935Z,98815.69
2023-01-12T10:54:19.394Z,98816.31
2023-01-12T10:55:23.567Z,98808.88
2023-01-12T10:56:30.077Z,98812.59
2023-01-12T10:57:33.721Z,98823.31
2023-01-12T10:58:35.632Z,98815.47
2023-01-12T10:59:39.926Z,98821.84
2023-01-12T11:00:48.815Z,98808.66
2023-01-12T11:01:52.158Z,98827.84
2023-01-12T11:02:54.507Z,98813.19
2023-01-12T11:04:05.915Z,98817.53
2023-01-12T11:05:38.520Z,98811.34
2023-01-12T11:06:44.602Z,98817.34
2023-01-12T11:07:49.867Z,98811.34
2023-01-12T11:08:52.042Z,98824.13
2023-01-12T11:09:54.812Z,98824.13
2023-01-12T11:10:56.614Z,98827.84
2023-01-12T11:12:01.998Z,98824.53
2023-01-12T11:13:06.328Z,98824.53
2023-01-12T11:14:24.398Z,98824.13
2023-01-12T11:15:28.025Z,98826.41
2023-01-12T11:16:39.111Z,98832.00
2023-01-12T11:18:02.357Z,98825.41
2023-01-12T11:19:30.035Z,98828.31
2023-01-12T11:20:50.435Z,98819.66
2023-01-12T11:22:13.602Z,98821.88
2023-01-12T11:23:21.972Z,98825.81
2023-01-12T11:24:33.111Z,98829.09
2023-01-12T11:25:42.645Z,98818.34
2023-01-12T11:26:47.332Z,98830.13
2023-01-12T11:28:04.272Z,98823.94
2023-01-12T11:29:29.210Z,98822.91
2023-01-12T11:30:44.690Z,98819.03
2023-01-12T11:31:49.592Z,98822.72
2023-01-12T11:33:11.096Z,98824.41
2023-01-12T11:34:28.298Z,98823.38
2023-01-12T11:35:37.857Z,98820.03
2023-01-12T11:36:43.821Z,98813.00
2023-01-12T11:37:46.828Z,98822.06
2023-01-12T11:38:58.476Z,98819.78
2023-01-12T11:40:30.621Z,98820.84
2023-01-12T11:41:41.147Z,98812.63
2023-01-12T11:43:02.824Z,98815.66
2023-01-12T11:44:19.518Z,98816.34
2023-01-12T11:45:43.528Z,98814.47
2023-01-12T11:46:51.187Z,98787.22
2023-01-12T11:48:00.313Z,98805.16
2023-01-12T11:49:05.117Z,98801.88
2023-01-12T11:50:18.700Z,98802.66
2023-01-12T11:51:20.587Z,98814.03
2023-01-12T11:52:25.264Z,98810.09
2023-01-12T11:53:27.172Z,98795.69
2023-01-12T11:54:31.298Z,98808.66
2023-01-12T11:56:01.812Z,98808.03
2023-01-12T11:57:28.131Z,98808.66
2023-01-12T11:58:29.844Z,98808.31
2023-01-12T11:59:49.586Z,98809.69
2023-01-12T12:01:33.571Z,98808.31
2023-01-12T12:02:39.040Z,98811.38
2023-01-12T12:03:57.417Z,98804.75
2023-01-12T12:05:28.406Z,98803.56
2023-01-12T12:06:39.560Z,98810.97
2023-01-12T12:07:41.298Z,98813.66
2023-01-12T12:09:04.058Z,98808.03
2023-01-12T12:10:22.558Z,98810.97
2023-01-12T12:11:47.406Z,98807.63
2023-01-12T12:13:07.957Z,98807.88
2023-01-12T12:14:29.106Z,98805.78
2023-01-12T12:15:53.770Z,98802.94
2023-01-12T12:17:16.877Z,98804.16
2023-01-12T12:18:52.457Z,98801.50
2023-01-12T12:19:57.259Z,98798.19
2023-01-12T12:21:08.064Z,98805.63
2023-01-12T12:22:09.791Z,98800.41
2023-01-12T12:23:22.936Z,98801.03
2023-01-12T12:24:46.986Z,98800.00
2023-01-12T12:26:15.110Z,98800.22
2023-01-12T12:27:58.409Z,98803.13
2023-01-12T12:29:06.347Z,98806.63
2023-01-12T12:30:34.228Z,98801.91
2023-01-12T12:32:03.400Z,98803.94
2023-01-12T12:33:14.253Z,98802.28
2023-01-12T12:34:21.658Z,98805.63
2023-01-12T12:35:41.574Z,98802.25
2023-01-12T12:36:54.141Z,98797.72
2023-01-12T12:37:55.864Z,98802.25
2023-01-12T12:39:36.456Z,98806.44
2023-01-12T12:41:19.389Z,98804.16
2023-01-12T12:43:02.792Z,98803.94
2023-01-12T12:44:44.940Z,98810.78
2023-01-12T12:45:52.631Z,98811.81
2023-01-12T12:47:09.626Z,98800.25
2023-01-12T12:48:32.363Z,98804.75
2023-01-12T12:49:37.173Z,98806.44
2023-01-12T12:51:04.767Z,98810.31
2023-01-12T12:52:12.480Z,98808.47
2023-01-12T12:53:22.786Z,98807.63
2023-01-12T12:54:26.464Z,98815.06
2023-01-12T12:55:28.348Z,98800.19
2023-01-12T12:56:33.786Z,98812.78
2023-01-12T12:58:02.944Z,98819.38
2023-01-12T12:59:04.965Z,98792.97
2023-01-12T13:00:40.583Z,98813.66
2023-01-12T13:01:55.169Z,98817.59
2023-01-12T13:02:58.751Z,98822.34
2023-01-12T13:04:05.616Z,98811.34
2023-01-12T13:05:09.144Z,98815.91
2023-01-12T13:06:22.253Z,98815.06
2023-01-12T13:07:25.961Z,98811.34